Time;durP1;ratioP1;P1;durP2;ratioP2;P2;SDS_P1;SDS_P2;PMS_P1;PMS_P2;Temp;Humidity;BMP_temperature;BMP_pressure;BME280_temperature;BME280_humidity;BME280_pressure;Samples;Min_cycle;Max_cycle;Signal;HPM_P1;HPM_P2
2022/10/13 00:00:20;;;;;;;;;;;;;;;;;;2106269;28;20024;-46
2022/10/13 00:01:20;;;;;;;;;;;;;;;;;;2106230;28;19920;-46
2022/10/13 00:02:21;;;;;;;;;;;;;;;;;;2106362;28;20181;-46
2022/10/13 00:03:22;;;;;;;;;;;;;;;;;;2106221;28;20372;-46
2022/10/13 00:04:23;;;;;;;;;;;;;;;;;;2106222;28;19920;-45
2022/10/13 00:05:24;;;;;;;;;;;;;;;;;;2106311;28;19927;-46
2022/10/13 00:06:25;;;;;;;;;;;;;;;;;;2106238;28;20011;-46
2022/10/13 00:07:26;;;;;;;;;;;;;;;;;;2106129;28;19924;-46
2022/10/13 00:08:26;;;;;;;;;;;;;;;;;;2106314;28;19919;-46
2022/10/13 00:09:27;;;;;;;;;;;;;;;;;;2106399;28;19920;-46
2022/10/13 00:10:28;;;;;;;;;;;;;;;;;;2099015;28;20464;-46
2022/10/13 00:11:29;;;;;;;;;;;;;;;;;;2097801;28;19924;-46
2022/10/13 00:12:30;;;;;;;;;;;;;;;;;;2097838;28;20366;-46
2022/10/13 00:13:31;;;;;;;;;;;;;;;;;;2098304;28;19927;-46
2022/10/13 00:14:31;;;;;;;;;;;;;;;;;;2106164;28;19970;-46
2022/10/13 00:15:32;;;;;;;;;;;;;;;;;;2106171;28;19942;-46
2022/10/13 00:16:33;;;;;;;;;;;;;;;;;;2106064;28;20022;-46
2022/10/13 00:17:35;;;;;;;;;;;;;;;;;;2106384;28;19920;-46
2022/10/13 00:18:36;;;;;;;;;;;;;;;;;;2106242;28;19924;-46
2022/10/13 00:19:37;;;;;;;;;;;;;;;;;;2106311;28;20281;-46
2022/10/13 00:20:37;;;;;;;;;;;;;;;;;;2106165;28;19942;-46
2022/10/13 00:21:38;;;;;;;;;;;;;;;;;;2106040;28;19966;-46
2022/10/13 00:22:39;;;;;;;;;;;;;;;;;;2106220;28;19924;-46
2022/10/13 00:23:40;;;;;;;;;;;;;;;;;;2106172;28;20006;-47
2022/10/13 00:24:40;;;;;;;;;;;;;;;;;;2106143;28;19920;-47
2022/10/13 00:25:42;;;;;;;;;;;;;;;;;;2106112;28;19919;-46
2022/10/13 00:26:42;;;;;;;;;;;;;;;;;;2106163;28;19920;-47
2022/10/13 00:27:43;;;;;;;;;;;;;;;;;;2106759;28;20014;-46
2022/10/13 00:28:44;;;;;;;;;;;;;;;;;;2107494;28;19950;-46
2022/10/13 00:29:50;;;;;;;;;;;;;;;;;;2107714;28;19920;-46
2022/10/13 00:30:51;;;;;;;;;;;;;;;;;;2107528;28;20277;-46
2022/10/13 00:31:51;;;;;;;;;;;;;;;;;;2107609;28;19967;-46
2022/10/13 00:32:52;;;;;;;;;;;;;;;;;;2107473;28;19924;-46
2022/10/13 00:33:53;;;;;;;;;;;;;;;;;;2107677;28;20361;-46
2022/10/13 00:34:54;;;;;;;;;;;;;;;;;;2107463;28;19924;-46
2022/10/13 00:35:55;;;;;;;;;;;;;;;;;;2107544;28;19920;-46
2022/10/13 00:36:55;;;;;;;;;;;;;;;;;;2107453;28;19942;-46
2022/10/13 00:37:56;;;;;;;;;;;;;;;;;;2107630;28;20012;-46
2022/10/13 00:38:57;;;;;;;;;;;;;;;;;;2107589;28;19920;-47
2022/10/13 00:39:58;;;;;;;;;;;;;;;;;;2107537;28;19923;-45
2022/10/13 00:40:59;;;;;;;;;;;;;;;;;;2107657;28;19931;-46
2022/10/13 00:42:00;;;;;;;;;;;;;;;;;;2107365;28;19927;-46
2022/10/13 00:43:00;;;;;;;;;;;;;;;;;;2107583;28;19959;-46
2022/10/13 00:44:01;;;;;;;;;;;;;;;;;;2107403;28;19963;-45
2022/10/13 00:45:02;;;;;;;;;;;;;;;;;;2107644;28;19920;-46
2022/10/13 00:46:03;;;;;;;;;;;;;;;;;;2107472;28;20422;-46
2022/10/13 00:47:04;;;;;;;;;;;;;;;;;;2107537;28;19920;-46
2022/10/13 00:48:05;;;;;;;;;;;;;;;;;;2107522;28;19920;-46
2022/10/13 00:49:06;;;;;;;;;;;;;;;;;;2107522;28;19920;-46
2022/10/13 00:50:06;;;;;;;;;;;;;;;;;;2107385;28;19920;-46
2022/10/13 00:51:07;;;;;;;;;;;;;;;;;;2107439;28;19919;-46
2022/10/13 00:52:08;;;;;;;;;;;;;;;;;;2107496;28;20421;-46
2022/10/13 00:53:09;;;;;;;;;;;;;;;;;;2107331;28;19943;-46
2022/10/13 00:54:10;;;;;;;;;;;;;;;;;;2107591;28;19920;-46
2022/10/13 00:55:11;;;;;;;;;;;;;;;;;;2107403;28;20369;-46
2022/10/13 00:56:12;;;;;;;;;;;;;;;;;;2107406;28;20362;-46
2022/10/13 00:57:13;;;;;;;;;;;;;;;;;;2107367;28;19927;-46
2022/10/13 00:58:15;;;;;;;;;;;;;;;;;;2107515;28;19920;-46
2022/10/13 00:59:17;;;;;;;;;;;;;;;;;;2107506;28;19920;-46
2022/10/13 01:00:18;;;;;;;;;;;;;;;;;;2107506;28;19924;-45
2022/10/13 01:01:19;;;;;;;;;;;;;;;;;;2107420;28;19966;-46
2022/10/13 01:02:20;;;;;;;;;;;;;;;;;;2107462;28;20011;-46
2022/10/13 01:03:21;;;;;;;;;;;;;;;;;;2107320;28;20375;-46
2022/10/13 01:04:22;;;;;;;;;;;;;;;;;;2107522;28;19955;-48
2022/10/13 01:05:23;;;;;;;;;;;;;;;;;;2107500;28;20280;-46
2022/10/13 01:06:24;;;;;;;;;;;;;;;;;;2107427;28;19924;-46
2022/10/13 01:07:24;;;;;;;;;;;;;;;;;;2107379;28;19981;-48
2022/10/13 01:08:26;;;;;;;;;;;;;;;;;;2107311;28;19920;-46
2022/10/13 01:09:33;;;;;;;;;;;;;;;;;;2107356;28;19926;-46
2022/10/13 01:10:34;;;;;;;;;;;;;;;;;;2106570;28;19927;-46
2022/10/13 01:11:35;;;;;;;;;;;;;;;;;;2107265;28;20018;-46
2022/10/13 01:12:36;;;;;;;;;;;;;;;;;;2107438;28;20196;-45
2022/10/13 01:13:36;;;;;;;;;;;;;;;;;;2107405;28;19928;-46
2022/10/13 01:14:37;;;;;;;;;;;;;;;;;;2107268;28;19920;-46
2022/10/13 01:15:38;;;;;;;;;;;;;;;;;;2107264;28;20060;-46
2022/10/13 01:16:39;;;;;;;;;;;;;;;;;;2107252;28;19931;-47
2022/10/13 01:17:40;;;;;;;;;;;;;;;;;;2107303;28;19920;-46
2022/10/13 01:18:41;;;;;;;;;;;;;;;;;;2107247;28;20018;-47
2022/10/13 01:19:42;;;;;;;;;;;;;;;;;;2107304;28;19920;-46
2022/10/13 01:20:43;;;;;;;;;;;;;;;;;;2107378;28;20382;-47
2022/10/13 01:21:43;;;;;;;;;;;;;;;;;;2107305;28;19920;-46
2022/10/13 01:22:44;;;;;;;;;;;;;;;;;;2107236;28;20359;-46
2022/10/13 01:23:45;;;;;;;;;;;;;;;;;;2107239;28;19919;-46
2022/10/13 01:24:46;;;;;;;;;;;;;;;;;;2107174;28;19930;-47
2022/10/13 01:25:46;;;;;;;;;;;;;;;;;;2107193;28;19923;-46
2022/10/13 01:26:47;;;;;;;;;;;;;;;;;;2107166;28;19924;-46
2022/10/13 01:27:48;;;;;;;;;;;;;;;;;;2107338;28;20281;-47
2022/10/13 01:28:49;;;;;;;;;;;;;;;;;;2107071;28;19950;-46
2022/10/13 01:29:50;;;;;;;;;;;;;;;;;;2107305;28;19927;-46
2022/10/13 01:30:51;;;;;;;;;;;;;;;;;;2107135;28;19967;-46
2022/10/13 01:31:51;;;;;;;;;;;;;;;;;;2107191;28;20011;-47
2022/10/13 01:32:52;;;;;;;;;;;;;;;;;;2107090;28;20284;-46
2022/10/13 01:33:53;;;;;;;;;;;;;;;;;;2107161;28;19920;-46
2022/10/13 01:34:54;;;;;;;;;;;;;;;;;;2107251;28;20007;-46
2022/10/13 01:35:55;;;;;;;;;;;;;;;;;;2107079;28;19942;-46
2022/10/13 01:36:56;;;;;;;;;;;;;;;;;;2107171;28;19931;-47
2022/10/13 01:37:57;;;;;;;;;;;;;;;;;;2107180;28;19973;-46
2022/10/13 01:38:58;;;;;;;;;;;;;;;;;;2107122;28;20400;-47
2022/10/13 01:39:58;;;;;;;;;;;;;;;;;;2106668;28;19920;-46
2022/10/13 01:40:59;;;;;;;;;;;;;;;;;;2107106;28;20392;-46
2022/10/13 01:42:00;;;;;;;;;;;;;;;;;;2107101;28;20280;-46
2022/10/13 01:43:01;;;;;;;;;;;;;;;;;;2107113;28;19920;-46
2022/10/13 01:44:02;;;;;;;;;;;;;;;;;;2107095;28;19920;-47
2022/10/13 01:45:03;;;;;;;;;;;;;;;;;;2107290;28;19920;-47
2022/10/13 01:46:04;;;;;;;;;;;;;;;;;;2107313;28;19920;-47
2022/10/13 01:47:05;;;;;;;;;;;;;;;;;;2107018;28;19920;-46
2022/10/13 01:48:05;;;;;;;;;;;;;;;;;;2107082;28;20261;-47
2022/10/13 01:49:06;;;;;;;;;;;;;;;;;;2107067;28;19981;-46
2022/10/13 01:50:07;;;;;;;;;;;;;;;;;;2107085;28;19920;-46
2022/10/13 01:51:08;;;;;;;;;;;;;;;;;;2107117;28;20284;-46
2022/10/13 01:52:09;;;;;;;;;;;;;;;;;;2107117;28;19924;-46
2022/10/13 01:53:10;;;;;;;;;;;;;;;;;;2107063;28;20400;-47
2022/10/13 01:54:10;;;;;;;;;;;;;;;;;;2107295;28;19920;-46
2022/10/13 01:55:11;;;;;;;;;;;;;;;;;;2106994;28;20011;-46
2022/10/13 01:56:12;;;;;;;;;;;;;;;;;;2106962;28;19926;-46
2022/10/13 01:57:13;;;;;;;;;;;;;;;;;;2106928;28;20306;-46
2022/10/13 01:58:14;;;;;;;;;;;;;;;;;;2106976;28;19924;-46
2022/10/13 01:59:15;;;;;;;;;;;;;;;;;;2107122;28;19919;-46
2022/10/13 02:00:15;;;;;;;;;;;;;;;;;;2107043;28;19920;-46
2022/10/13 02:01:16;;;;;;;;;;;;;;;;;;2107110;28;19919;-47
2022/10/13 02:02:17;;;;;;;;;;;;;;;;;;2106983;28;20474;-47
2022/10/13 02:03:18;;;;;;;;;;;;;;;;;;2107307;28;19960;-53
2022/10/13 02:04:19;;;;;;;;;;;;;;;;;;2106192;28;20414;-53
2022/10/13 02:05:20;;;;;;;;;;;;;;;;;;2106928;28;19920;-52
2022/10/13 02:06:20;;;;;;;;;;;;;;;;;;2106585;28;19920;-52
2022/10/13 02:07:21;;;;;;;;;;;;;;;;;;2106866;28;20300;-52
2022/10/13 02:08:22;;;;;;;;;;;;;;;;;;2106991;28;20384;-54
2022/10/13 02:09:23;;;;;;;;;;;;;;;;;;2106942;28;20365;-52
2022/10/13 02:10:24;;;;;;;;;;;;;;;;;;2100512;28;20121;-51
2022/10/13 02:11:25;;;;;;;;;;;;;;;;;;2098503;28;20011;-54
2022/10/13 02:12:25;;;;;;;;;;;;;;;;;;2098504;28;20007;-53
2022/10/13 02:13:26;;;;;;;;;;;;;;;;;;2098606;28;20007;-53
2022/10/13 02:14:28;;;;;;;;;;;;;;;;;;2098665;28;19924;-52
2022/10/13 02:15:29;;;;;;;;;;;;;;;;;;2098636;28;19932;-53
2022/10/13 02:16:30;;;;;;;;;;;;;;;;;;2098399;28;19947;-54
2022/10/13 02:17:31;;;;;;;;;;;;;;;;;;2098532;28;19927;-52
2022/10/13 02:18:31;;;;;;;;;;;;;;;;;;2098480;28;19927;-52
2022/10/13 02:19:32;;;;;;;;;;;;;;;;;;2098523;28;19924;-53
2022/10/13 02:20:33;;;;;;;;;;;;;;;;;;2098479;28;19920;-54
2022/10/13 02:21:34;;;;;;;;;;;;;;;;;;2098508;28;19951;-54
2022/10/13 02:22:35;;;;;;;;;;;;;;;;;;2098464;28;19924;-54
2022/10/13 02:23:36;;;;;;;;;;;;;;;;;;2098586;28;19927;-54
2022/10/13 02:24:36;;;;;;;;;;;;;;;;;;2098551;28;19925;-54
2022/10/13 02:25:37;;;;;;;;;;;;;;;;;;2098420;28;19924;-54
2022/10/13 02:26:38;;;;;;;;;;;;;;;;;;2098385;28;19928;-54
2022/10/13 02:27:39;;;;;;;;;;;;;;;;;;2098465;28;19924;-54
2022/10/13 02:28:40;;;;;;;;;;;;;;;;;;2098456;28;19970;-54
2022/10/13 02:29:40;;;;;;;;;;;;;;;;;;2098468;28;20046;-54
2022/10/13 02:30:41;;;;;;;;;;;;;;;;;;2098564;28;20323;-54
2022/10/13 02:31:42;;;;;;;;;;;;;;;;;;2098266;28;20363;-54
2022/10/13 02:32:43;;;;;;;;;;;;;;;;;;2098564;28;19920;-54
2022/10/13 02:33:44;;;;;;;;;;;;;;;;;;2098319;28;19921;-54
2022/10/13 02:34:44;;;;;;;;;;;;;;;;;;2098525;28;19955;-54
2022/10/13 02:35:45;;;;;;;;;;;;;;;;;;2098544;28;20396;-52
2022/10/13 02:36:46;;;;;;;;;;;;;;;;;;2098322;28;19924;-54
2022/10/13 02:37:47;;;;;;;;;;;;;;;;;;2098358;28;19970;-54
2022/10/13 02:38:48;;;;;;;;;;;;;;;;;;2098351;28;19927;-54
2022/10/13 02:39:49;;;;;;;;;;;;;;;;;;2098484;28;20062;-54
2022/10/13 02:40:49;;;;;;;;;;;;;;;;;;2098329;28;20601;-53
2022/10/13 02:41:50;;;;;;;;;;;;;;;;;;2098416;28;19928;-54
2022/10/13 02:42:51;;;;;;;;;;;;;;;;;;2098424;28;20078;-53
2022/10/13 02:43:52;;;;;;;;;;;;;;;;;;2098453;28;19924;-54
2022/10/13 02:44:53;;;;;;;;;;;;;;;;;;2098456;28;19920;-54
2022/10/13 02:45:54;;;;;;;;;;;;;;;;;;2098454;28;19920;-54
2022/10/13 02:46:54;;;;;;;;;;;;;;;;;;2098250;28;19920;-54
2022/10/13 02:47:56;;;;;;;;;;;;;;;;;;2098322;28;19920;-54
2022/10/13 02:48:57;;;;;;;;;;;;;;;;;;2098211;28;19924;-55
2022/10/13 02:49:58;;;;;;;;;;;;;;;;;;2098290;28;19920;-55
2022/10/13 02:50:59;;;;;;;;;;;;;;;;;;2097575;28;19971;-55
2022/10/13 02:51:59;;;;;;;;;;;;;;;;;;2097821;28;19920;-54
2022/10/13 02:53:00;;;;;;;;;;;;;;;;;;2098428;28;19927;-54
2022/10/13 02:54:01;;;;;;;;;;;;;;;;;;2098247;28;19982;-54
2022/10/13 02:55:02;;;;;;;;;;;;;;;;;;2098381;28;19920;-54
2022/10/13 02:56:03;;;;;;;;;;;;;;;;;;2098401;28;19920;-54
2022/10/13 02:57:03;;;;;;;;;;;;;;;;;;2098186;28;19927;-54
2022/10/13 02:58:04;;;;;;;;;;;;;;;;;;2098299;28;20276;-53
2022/10/13 02:59:05;;;;;;;;;;;;;;;;;;2098206;28;19920;-54
2022/10/13 03:00:06;;;;;;;;;;;;;;;;;;2098264;28;19964;-54
2022/10/13 03:01:07;;;;;;;;;;;;;;;;;;2098293;28;19970;-54
2022/10/13 03:02:08;;;;;;;;;;;;;;;;;;2098310;28;20360;-52
2022/10/13 03:03:08;;;;;;;;;;;;;;;;;;2106068;28;19923;-54
2022/10/13 03:04:09;;;;;;;;;;;;;;;;;;2106619;28;20452;-54
2022/10/13 03:05:10;;;;;;;;;;;;;;;;;;2106616;28;19920;-54
2022/10/13 03:06:11;;;;;;;;;;;;;;;;;;2106561;28;19927;-54
2022/10/13 03:07:11;;;;;;;;;;;;;;;;;;2106472;28;19923;-52
2022/10/13 03:08:14;;;;;;;;;;;;;;;;;;2106546;28;19920;-54
2022/10/13 03:09:14;;;;;;;;;;;;;;;;;;2106622;28;19920;-54
2022/10/13 03:10:15;;;;;;;;;;;;;;;;;;2101179;28;20289;-54
2022/10/13 03:11:16;;;;;;;;;;;;;;;;;;2098263;28;19920;-54
2022/10/13 03:12:17;;;;;;;;;;;;;;;;;;2098116;28;19970;-54
2022/10/13 03:13:18;;;;;;;;;;;;;;;;;;2098183;28;20339;-54
2022/10/13 03:14:19;;;;;;;;;;;;;;;;;;2098162;28;19924;-54
2022/10/13 03:15:20;;;;;;;;;;;;;;;;;;2098299;28;19924;-54
2022/10/13 03:16:21;;;;;;;;;;;;;;;;;;2098125;28;19971;-54
2022/10/13 03:17:21;;;;;;;;;;;;;;;;;;2098220;28;20007;-54
2022/10/13 03:18:22;;;;;;;;;;;;;;;;;;2098167;28;19921;-54
2022/10/13 03:19:23;;;;;;;;;;;;;;;;;;2098079;28;19921;-54
2022/10/13 03:20:24;;;;;;;;;;;;;;;;;;2098117;28;19949;-53
2022/10/13 03:21:25;;;;;;;;;;;;;;;;;;2098073;28;19920;-54
2022/10/13 03:22:26;;;;;;;;;;;;;;;;;;2098221;28;19973;-54
2022/10/13 03:23:26;;;;;;;;;;;;;;;;;;2098075;28;19927;-53
2022/10/13 03:24:27;;;;;;;;;;;;;;;;;;2098251;28;20011;-54
2022/10/13 03:25:28;;;;;;;;;;;;;;;;;;2098058;28;20440;-54
2022/10/13 03:26:29;;;;;;;;;;;;;;;;;;2098224;28;19924;-52
2022/10/13 03:27:29;;;;;;;;;;;;;;;;;;2098205;28;19969;-52
2022/10/13 03:28:30;;;;;;;;;;;;;;;;;;2097973;28;19921;-54
2022/10/13 03:29:31;;;;;;;;;;;;;;;;;;2098170;28;20418;-53
2022/10/13 03:30:33;;;;;;;;;;;;;;;;;;2098057;28;20475;-54
2022/10/13 03:31:34;;;;;;;;;;;;;;;;;;2098007;28;19932;-54
2022/10/13 03:32:35;;;;;;;;;;;;;;;;;;2098105;28;19920;-54
2022/10/13 03:33:35;;;;;;;;;;;;;;;;;;2098084;28;20010;-52
2022/10/13 03:34:36;;;;;;;;;;;;;;;;;;2098112;28;20019;-54
2022/10/13 03:35:37;;;;;;;;;;;;;;;;;;2098168;28;19920;-53
2022/10/13 03:36:38;;;;;;;;;;;;;;;;;;2098031;28;19973;-53
2022/10/13 03:37:39;;;;;;;;;;;;;;;;;;2098168;28;19924;-54
2022/10/13 03:38:40;;;;;;;;;;;;;;;;;;2098058;28;19956;-54
2022/10/13 03:39:40;;;;;;;;;;;;;;;;;;2097997;28;19920;-54
2022/10/13 03:40:41;;;;;;;;;;;;;;;;;;2098059;28;19921;-54
2022/10/13 03:41:42;;;;;;;;;;;;;;;;;;2097910;28;19920;-55
2022/10/13 03:42:43;;;;;;;;;;;;;;;;;;2098021;28;19966;-54
2022/10/13 03:43:43;;;;;;;;;;;;;;;;;;2098018;28;20016;-54
2022/10/13 03:44:44;;;;;;;;;;;;;;;;;;2098129;28;20357;-52
2022/10/13 03:45:45;;;;;;;;;;;;;;;;;;2097987;28;19927;-54
2022/10/13 03:46:46;;;;;;;;;;;;;;;;;;2097903;28;19924;-55
2022/10/13 03:47:47;;;;;;;;;;;;;;;;;;2098134;28;19963;-55
2022/10/13 03:48:48;;;;;;;;;;;;;;;;;;2097844;28;20262;-54
2022/10/13 03:49:49;;;;;;;;;;;;;;;;;;2097915;28;20363;-53
2022/10/13 03:50:50;;;;;;;;;;;;;;;;;;2097738;28;19924;-54
2022/10/13 03:51:50;;;;;;;;;;;;;;;;;;2098150;28;19920;-54
2022/10/13 03:52:51;;;;;;;;;;;;;;;;;;2097936;28;20457;-54
2022/10/13 03:53:52;;;;;;;;;;;;;;;;;;2098083;28;19946;-54
2022/10/13 03:54:53;;;;;;;;;;;;;;;;;;2098027;28;20023;-53
2022/10/13 03:55:54;;;;;;;;;;;;;;;;;;2098024;28;19920;-54
2022/10/13 03:56:55;;;;;;;;;;;;;;;;;;2097800;28;20017;-52
2022/10/13 03:57:55;;;;;;;;;;;;;;;;;;2097950;28;19920;-54
2022/10/13 03:58:56;;;;;;;;;;;;;;;;;;2101916;28;19920;-54
2022/10/13 03:59:57;;;;;;;;;;;;;;;;;;2106281;28;19920;-54
2022/10/13 04:00:58;;;;;;;;;;;;;;;;;;2106307;28;19927;-54
2022/10/13 04:01:59;;;;;;;;;;;;;;;;;;2106188;28;19924;-52
2022/10/13 04:03:00;;;;;;;;;;;;;;;;;;2107367;28;20364;-54
2022/10/13 04:04:01;;;;;;;;;;;;;;;;;;2107774;28;19997;-54
2022/10/13 04:05:02;;;;;;;;;;;;;;;;;;2107853;28;19942;-54
2022/10/13 04:06:03;;;;;;;;;;;;;;;;;;2107846;28;20370;-53
2022/10/13 04:07:04;;;;;;;;;;;;;;;;;;2107838;28;19973;-54
2022/10/13 04:08:04;;;;;;;;;;;;;;;;;;2107714;28;19920;-53
2022/10/13 04:09:05;;;;;;;;;;;;;;;;;;2107793;28;19920;-54
2022/10/13 04:10:06;;;;;;;;;;;;;;;;;;2103706;28;19928;-54
2022/10/13 04:11:11;;;;;;;;;;;;;;;;;;2099408;28;19985;-54
2022/10/13 04:12:12;;;;;;;;;;;;;;;;;;2099428;28;19920;-54
2022/10/13 04:13:16;;;;;;;;;;;;;;;;;;2099337;28;19925;-54
2022/10/13 04:14:17;;;;;;;;;;;;;;;;;;2099281;28;19975;-54
2022/10/13 04:15:18;;;;;;;;;;;;;;;;;;2099283;28;19927;-53
2022/10/13 04:16:18;;;;;;;;;;;;;;;;;;2099309;28;19920;-54
2022/10/13 04:17:19;;;;;;;;;;;;;;;;;;2099155;28;19924;-54
2022/10/13 04:18:20;;;;;;;;;;;;;;;;;;2099326;28;19921;-54
2022/10/13 04:19:21;;;;;;;;;;;;;;;;;;2099385;28;19920;-54
2022/10/13 04:20:22;;;;;;;;;;;;;;;;;;2099380;28;19922;-54
2022/10/13 04:21:23;;;;;;;;;;;;;;;;;;2099273;28;20009;-53
2022/10/13 04:22:23;;;;;;;;;;;;;;;;;;2099186;28;19920;-52
2022/10/13 04:23:24;;;;;;;;;;;;;;;;;;2099220;28;19983;-54
2022/10/13 04:24:25;;;;;;;;;;;;;;;;;;2099310;28;19946;-51
2022/10/13 04:25:26;;;;;;;;;;;;;;;;;;2099241;28;19921;-54
2022/10/13 04:26:27;;;;;;;;;;;;;;;;;;2099240;28;19927;-54
2022/10/13 04:27:28;;;;;;;;;;;;;;;;;;2099246;28;20018;-54
2022/10/13 04:28:28;;;;;;;;;;;;;;;;;;2099241;28;19920;-54
2022/10/13 04:29:29;;;;;;;;;;;;;;;;;;2099125;28;19928;-54
2022/10/13 04:30:30;;;;;;;;;;;;;;;;;;2099348;28;19927;-52
2022/10/13 04:31:31;;;;;;;;;;;;;;;;;;2099101;28;20102;-54
2022/10/13 04:32:31;;;;;;;;;;;;;;;;;;2099175;28;19921;-54
2022/10/13 04:33:32;;;;;;;;;;;;;;;;;;2099177;28;19924;-54
2022/10/13 04:34:33;;;;;;;;;;;;;;;;;;2099502;28;20018;-54
2022/10/13 04:35:34;;;;;;;;;;;;;;;;;;2099218;28;19920;-54
2022/10/13 04:36:35;;;;;;;;;;;;;;;;;;2099283;28;19921;-55
2022/10/13 04:37:36;;;;;;;;;;;;;;;;;;2099256;28;19927;-54
2022/10/13 04:38:38;;;;;;;;;;;;;;;;;;2099166;28;20400;-54
2022/10/13 04:39:40;;;;;;;;;;;;;;;;;;2099217;28;20029;-54
2022/10/13 04:40:40;;;;;;;;;;;;;;;;;;2099166;28;19920;-54
2022/10/13 04:41:41;;;;;;;;;;;;;;;;;;2099180;28;19920;-54
2022/10/13 04:42:43;;;;;;;;;;;;;;;;;;2099180;28;19920;-55
2022/10/13 04:43:44;;;;;;;;;;;;;;;;;;2099312;28;20396;-55
2022/10/13 04:44:44;;;;;;;;;;;;;;;;;;2099108;28;19973;-54
2022/10/13 04:45:45;;;;;;;;;;;;;;;;;;2099252;28;19921;-54
2022/10/13 04:46:46;;;;;;;;;;;;;;;;;;2099172;28;20434;-53
2022/10/13 04:47:47;;;;;;;;;;;;;;;;;;2099216;28;20379;-54
2022/10/13 04:48:48;;;;;;;;;;;;;;;;;;2099020;28;19920;-53
2022/10/13 04:49:49;;;;;;;;;;;;;;;;;;2099092;28;19920;-54
2022/10/13 04:50:49;;;;;;;;;;;;;;;;;;2099056;28;19924;-54
2022/10/13 04:51:50;;;;;;;;;;;;;;;;;;2099004;28;20017;-54
2022/10/13 04:52:51;;;;;;;;;;;;;;;;;;2099086;28;19927;-54
2022/10/13 04:53:52;;;;;;;;;;;;;;;;;;2099034;28;19920;-54
2022/10/13 04:54:53;;;;;;;;;;;;;;;;;;2100665;28;19944;-54
2022/10/13 04:55:54;;;;;;;;;;;;;;;;;;2107438;28;20367;-54
2022/10/13 04:56:54;;;;;;;;;;;;;;;;;;2107322;28;19920;-54
2022/10/13 04:57:55;;;;;;;;;;;;;;;;;;2107381;28;19923;-53
2022/10/13 04:58:56;;;;;;;;;;;;;;;;;;2107391;28;19920;-54
2022/10/13 04:59:57;;;;;;;;;;;;;;;;;;2107481;28;19927;-54
2022/10/13 05:00:58;;;;;;;;;;;;;;;;;;2107432;28;19921;-54
2022/10/13 05:01:59;;;;;;;;;;;;;;;;;;2107405;28;19950;-53
2022/10/13 05:03:00;;;;;;;;;;;;;;;;;;2107352;28;19953;-54
2022/10/13 05:04:00;;;;;;;;;;;;;;;;;;2107475;28;19927;-54
2022/10/13 05:05:01;;;;;;;;;;;;;;;;;;2107317;28;19977;-52
2022/10/13 05:06:03;;;;;;;;;;;;;;;;;;2107480;28;19927;-54
2022/10/13 05:07:04;;;;;;;;;;;;;;;;;;2107285;28;19928;-54
2022/10/13 05:08:20;;;;;;;;;;;;;;;;;;2107363;28;20234;-53
2022/10/13 05:09:21;;;;;;;;;;;;;;;;;;2107245;28;19969;-54
2022/10/13 05:10:22;;;;;;;;;;;;;;;;;;2101131;28;19920;-54
2022/10/13 05:11:24;;;;;;;;;;;;;;;;;;2098913;28;19927;-54
2022/10/13 05:12:24;;;;;;;;;;;;;;;;;;2099033;28;19921;-54
2022/10/13 05:13:25;;;;;;;;;;;;;;;;;;2099037;28;20031;-54
2022/10/13 05:14:26;;;;;;;;;;;;;;;;;;2098072;28;19924;-52
2022/10/13 05:15:27;;;;;;;;;;;;;;;;;;2099080;28;19927;-54
2022/10/13 05:16:29;;;;;;;;;;;;;;;;;;2098852;28;19920;-55
2022/10/13 05:17:30;;;;;;;;;;;;;;;;;;2099203;28;20032;-54
2022/10/13 05:18:35;;;;;;;;;;;;;;;;;;2098939;28;19928;-54
2022/10/13 05:19:36;;;;;;;;;;;;;;;;;;2098907;28;19920;-53
2022/10/13 05:20:37;;;;;;;;;;;;;;;;;;2098958;28;20019;-54
2022/10/13 05:21:37;;;;;;;;;;;;;;;;;;2098954;28;20366;-54
2022/10/13 05:22:38;;;;;;;;;;;;;;;;;;2098961;28;19924;-54
2022/10/13 05:23:39;;;;;;;;;;;;;;;;;;2098864;28;20019;-55
2022/10/13 05:24:40;;;;;;;;;;;;;;;;;;2098939;28;19924;-54
2022/10/13 05:25:41;;;;;;;;;;;;;;;;;;2099036;28;19924;-54
2022/10/13 05:26:41;;;;;;;;;;;;;;;;;;2098895;28;20285;-53
2022/10/13 05:27:44;;;;;;;;;;;;;;;;;;2098849;28;19920;-53
2022/10/13 05:28:44;;;;;;;;;;;;;;;;;;2098789;28;19920;-54
2022/10/13 05:29:45;;;;;;;;;;;;;;;;;;2098897;28;20353;-54
2022/10/13 05:30:46;;;;;;;;;;;;;;;;;;2098860;28;19920;-54
2022/10/13 05:31:47;;;;;;;;;;;;;;;;;;2098760;28;20019;-53
2022/10/13 05:32:48;;;;;;;;;;;;;;;;;;2098785;28;19928;-53
2022/10/13 05:33:54;;;;;;;;;;;;;;;;;;2098786;28;19927;-53
2022/10/13 05:34:54;;;;;;;;;;;;;;;;;;2098829;28;20018;-54
2022/10/13 05:35:55;;;;;;;;;;;;;;;;;;2098821;28;19920;-55
2022/10/13 05:36:56;;;;;;;;;;;;;;;;;;2098725;28;20060;-55
2022/10/13 05:37:57;;;;;;;;;;;;;;;;;;2098805;28;19921;-51
2022/10/13 05:38:58;;;;;;;;;;;;;;;;;;2098723;28;19966;-53
2022/10/13 05:39:58;;;;;;;;;;;;;;;;;;2098889;28;20254;-53
2022/10/13 05:40:59;;;;;;;;;;;;;;;;;;2098740;28;19924;-54
2022/10/13 05:42:00;;;;;;;;;;;;;;;;;;2098630;28;19920;-52
2022/10/13 05:43:01;;;;;;;;;;;;;;;;;;2098774;28;19920;-53
2022/10/13 05:44:02;;;;;;;;;;;;;;;;;;2098805;28;19921;-53
2022/10/13 05:45:03;;;;;;;;;;;;;;;;;;2098698;28;19950;-54
2022/10/13 05:46:04;;;;;;;;;;;;;;;;;;2098855;28;19924;-55
2022/10/13 05:47:05;;;;;;;;;;;;;;;;;;2098783;28;19921;-53
2022/10/13 05:48:07;;;;;;;;;;;;;;;;;;2098707;28;19921;-53
2022/10/13 05:49:09;;;;;;;;;;;;;;;;;;2098808;28;19920;-54
2022/10/13 05:50:10;;;;;;;;;;;;;;;;;;2098656;28;19920;-54
2022/10/13 05:51:11;;;;;;;;;;;;;;;;;;2100758;28;19920;-54
2022/10/13 05:52:12;;;;;;;;;;;;;;;;;;2106916;28;19920;-54
2022/10/13 05:53:13;;;;;;;;;;;;;;;;;;2107176;28;20376;-53
2022/10/13 05:54:13;;;;;;;;;;;;;;;;;;2107008;28;19963;-54
2022/10/13 05:55:14;;;;;;;;;;;;;;;;;;2107015;28;19963;-54
2022/10/13 05:56:15;;;;;;;;;;;;;;;;;;2107052;28;19920;-53
2022/10/13 05:57:16;;;;;;;;;;;;;;;;;;2107086;28;19959;-53
2022/10/13 05:58:17;;;;;;;;;;;;;;;;;;2107118;28;20249;-54
2022/10/13 05:59:18;;;;;;;;;;;;;;;;;;2106988;28;19924;-54
2022/10/13 06:00:20;;;;;;;;;;;;;;;;;;2107007;28;19920;-52
2022/10/13 06:01:21;;;;;;;;;;;;;;;;;;2106972;28;19920;-53
2022/10/13 06:02:22;;;;;;;;;;;;;;;;;;2107048;28;19943;-55
2022/10/13 06:03:23;;;;;;;;;;;;;;;;;;2106927;28;19920;-55
2022/10/13 06:04:24;;;;;;;;;;;;;;;;;;2107073;28;20019;-54
2022/10/13 06:05:25;;;;;;;;;;;;;;;;;;2106911;28;19959;-54
2022/10/13 06:06:25;;;;;;;;;;;;;;;;;;2107006;28;19919;-54
2022/10/13 06:07:31;;;;;;;;;;;;;;;;;;2107056;28;19965;-54
2022/10/13 06:08:32;;;;;;;;;;;;;;;;;;2107067;28;19920;-54
2022/10/13 06:09:33;;;;;;;;;;;;;;;;;;2106981;28;20307;-54
2022/10/13 06:10:34;;;;;;;;;;;;;;;;;;2098898;28;19921;-54
2022/10/13 06:11:35;;;;;;;;;;;;;;;;;;2098441;28;20365;-54
2022/10/13 06:12:36;;;;;;;;;;;;;;;;;;2098551;28;19944;-54
2022/10/13 06:13:37;;;;;;;;;;;;;;;;;;2098549;28;19963;-54
2022/10/13 06:14:37;;;;;;;;;;;;;;;;;;2098584;28;20400;-52
2022/10/13 06:15:38;;;;;;;;;;;;;;;;;;2098677;28;20255;-53
2022/10/13 06:16:39;;;;;;;;;;;;;;;;;;2098411;28;19965;-54
2022/10/13 06:17:40;;;;;;;;;;;;;;;;;;2098662;28;19928;-53
2022/10/13 06:18:41;;;;;;;;;;;;;;;;;;2098477;28;20300;-54
2022/10/13 06:19:44;;;;;;;;;;;;;;;;;;2098624;28;19920;-54
2022/10/13 06:20:44;;;;;;;;;;;;;;;;;;2098601;28;19920;-54
2022/10/13 06:21:45;;;;;;;;;;;;;;;;;;2098429;28;19967;-54
2022/10/13 06:22:48;;;;;;;;;;;;;;;;;;2098662;28;19933;-54
2022/10/13 06:23:49;;;;;;;;;;;;;;;;;;2098420;28;19930;-54
2022/10/13 06:24:50;;;;;;;;;;;;;;;;;;2098462;28;19927;-52
2022/10/13 06:25:51;;;;;;;;;;;;;;;;;;2098271;28;19920;-53
2022/10/13 06:26:52;;;;;;;;;;;;;;;;;;2098518;28;20013;-54
2022/10/13 06:27:53;;;;;;;;;;;;;;;;;;2098533;28;19920;-54
2022/10/13 06:28:53;;;;;;;;;;;;;;;;;;2098395;28;19922;-52
2022/10/13 06:29:59;;;;;;;;;;;;;;;;;;2098568;28;19924;-55
2022/10/13 06:31:00;;;;;;;;;;;;;;;;;;2098422;28;19967;-52
2022/10/13 06:32:01;;;;;;;;;;;;;;;;;;2098514;28;20175;-51
2022/10/13 06:33:02;;;;;;;;;;;;;;;;;;2098384;28;19920;-51
2022/10/13 06:34:02;;;;;;;;;;;;;;;;;;2098559;28;19920;-51
2022/10/13 06:35:03;;;;;;;;;;;;;;;;;;2098363;28;19967;-51
2022/10/13 06:36:04;;;;;;;;;;;;;;;;;;2098394;28;19920;-54
2022/10/13 06:37:05;;;;;;;;;;;;;;;;;;2098425;28;19928;-51
2022/10/13 06:38:06;;;;;;;;;;;;;;;;;;2098443;28;19927;-53
2022/10/13 06:39:07;;;;;;;;;;;;;;;;;;2098465;28;19971;-52
2022/10/13 06:40:08;;;;;;;;;;;;;;;;;;2098344;28;19956;-54
2022/10/13 06:41:09;;;;;;;;;;;;;;;;;;2098480;28;20357;-53
2022/10/13 06:42:09;;;;;;;;;;;;;;;;;;2098407;28;19931;-52
2022/10/13 06:43:10;;;;;;;;;;;;;;;;;;2098469;28;19971;-53
2022/10/13 06:44:11;;;;;;;;;;;;;;;;;;2098352;28;19921;-54
2022/10/13 06:45:12;;;;;;;;;;;;;;;;;;2098471;28;20392;-54
2022/10/13 06:46:13;;;;;;;;;;;;;;;;;;2098314;28;19925;-54
2022/10/13 06:47:13;;;;;;;;;;;;;;;;;;2098683;28;19927;-52
2022/10/13 06:48:14;;;;;;;;;;;;;;;;;;2106648;28;19920;-54
2022/10/13 06:49:15;;;;;;;;;;;;;;;;;;2106633;28;19971;-53
2022/10/13 06:50:16;;;;;;;;;;;;;;;;;;2106769;28;19963;-54
2022/10/13 06:51:17;;;;;;;;;;;;;;;;;;2106791;28;20401;-54
2022/10/13 06:52:17;;;;;;;;;;;;;;;;;;2106583;28;19926;-53
2022/10/13 06:53:19;;;;;;;;;;;;;;;;;;2106662;28;19920;-52
2022/10/13 06:54:19;;;;;;;;;;;;;;;;;;2106778;28;19923;-54
2022/10/13 06:55:20;;;;;;;;;;;;;;;;;;2106628;28;19974;-54
2022/10/13 06:56:22;;;;;;;;;;;;;;;;;;2106611;28;19919;-54